Sandy Lake, Pennsylvania
Current Conditions -  °F | °C
As of 11:15 PM on Thursday 27 Nov 2014 (Local Time) from KFKL Reporting Station
Overcast Overcast  
Wind Chill: 19°   Ceiling: 1900
Heat Index: 27°   Visibility: 10mi
Dew Point: 21°   Wind: 7mph
Humidity: 80%   Direction: 320°NW
Pressure: 30.16"   Gusts: NA
Location:  41.35°N, 80.08°W
Report Text: KFKL 280415Z AUTO 32006KT 10SM SCT014 BKN019 OVC060 M03/M06 A3016 RMK AO1
Loading
Personal Weather Stations






























Interactive Weather Map New forecast layout! Learn more

10-Day Weather Forecast

Advertisements
Track Severe Weather on mobile